sensor_id;sensor_type;location;lat;lon;timestamp;P1;durP1;ratioP1;P2;durP2;ratioP2
79640;SDS011;69115;49.904;14.390;2023-08-30T00:01:46;4.70;;;2.90;;
79640;SDS011;69115;49.904;14.390;2023-08-30T00:04:12;4.15;;;3.00;;
79640;SDS011;69115;49.904;14.390;2023-08-30T00:06:37;5.20;;;3.33;;
79640;SDS011;69115;49.904;14.390;2023-08-30T00:09:02;3.50;;;2.80;;
79640;SDS011;69115;49.904;14.390;2023-08-30T00:11:28;4.75;;;3.00;;
79640;SDS011;69115;49.904;14.390;2023-08-30T00:14:02;4.45;;;2.70;;
79640;SDS011;69115;49.904;14.390;2023-08-30T00:16:28;6.88;;;3.40;;
79640;SDS011;69115;49.904;14.390;2023-08-30T00:18:54;4.05;;;3.03;;
79640;SDS011;69115;49.904;14.390;2023-08-30T00:21:20;3.80;;;3.15;;
79640;SDS011;69115;49.904;14.390;2023-08-30T00:23:45;6.25;;;3.08;;
79640;SDS011;69115;49.904;14.390;2023-08-30T00:26:11;4.28;;;3.25;;
79640;SDS011;69115;49.904;14.390;2023-08-30T00:28:36;4.45;;;3.10;;
79640;SDS011;69115;49.904;14.390;2023-08-30T00:31:02;4.47;;;3.10;;
79640;SDS011;69115;49.904;14.390;2023-08-30T00:33:27;4.13;;;3.00;;
79640;SDS011;69115;49.904;14.390;2023-08-30T00:35:59;4.72;;;2.95;;
79640;SDS011;69115;49.904;14.390;2023-08-30T00:38:26;7.00;;;3.20;;
79640;SDS011;69115;49.904;14.390;2023-08-30T00:40:51;4.18;;;3.03;;
79640;SDS011;69115;49.904;14.390;2023-08-30T00:43:17;3.95;;;3.20;;
79640;SDS011;69115;49.904;14.390;2023-08-30T00:45:43;5.70;;;3.20;;
79640;SDS011;69115;49.904;14.390;2023-08-30T00:48:09;4.68;;;3.40;;
79640;SDS011;69115;49.904;14.390;2023-08-30T00:50:35;7.03;;;3.28;;
79640;SDS011;69115;49.904;14.390;2023-08-30T00:53:01;6.45;;;3.40;;
79640;SDS011;69115;49.904;14.390;2023-08-30T00:55:30;3.60;;;2.92;;
79640;SDS011;69115;49.904;14.390;2023-08-30T00:57:58;4.85;;;3.60;;
79640;SDS011;69115;49.904;14.390;2023-08-30T01:00:23;4.75;;;3.08;;
79640;SDS011;69115;49.904;14.390;2023-08-30T01:02:49;6.13;;;3.33;;
79640;SDS011;69115;49.904;14.390;2023-08-30T01:05:14;3.65;;;2.92;;
79640;SDS011;69115;49.904;14.390;2023-08-30T01:07:40;5.05;;;3.10;;
79640;SDS011;69115;49.904;14.390;2023-08-30T01:10:05;3.90;;;3.05;;
79640;SDS011;69115;49.904;14.390;2023-08-30T01:12:39;3.72;;;3.10;;
79640;SDS011;69115;49.904;14.390;2023-08-30T01:15:09;3.80;;;2.70;;
79640;SDS011;69115;49.904;14.390;2023-08-30T01:17:36;4.07;;;2.80;;
79640;SDS011;69115;49.904;14.390;2023-08-30T01:20:04;6.78;;;3.33;;
79640;SDS011;69115;49.904;14.390;2023-08-30T01:22:43;6.00;;;3.30;;
79640;SDS011;69115;49.904;14.390;2023-08-30T01:27:57;4.00;;;3.05;;
79640;SDS011;69115;49.904;14.390;2023-08-30T01:30:25;4.90;;;2.67;;
79640;SDS011;69115;49.904;14.390;2023-08-30T01:32:52;4.05;;;3.08;;
79640;SDS011;69115;49.904;14.390;2023-08-30T01:35:17;8.10;;;3.10;;
79640;SDS011;69115;49.904;14.390;2023-08-30T01:37:45;4.38;;;2.90;;
79640;SDS011;69115;49.904;14.390;2023-08-30T01:40:11;6.00;;;2.40;;
79640;SDS011;69115;49.904;14.390;2023-08-30T01:42:37;5.65;;;2.58;;
79640;SDS011;69115;49.904;14.390;2023-08-30T01:45:03;4.05;;;2.55;;
79640;SDS011;69115;49.904;14.390;2023-08-30T01:47:30;3.05;;;2.28;;
79640;SDS011;69115;49.904;14.390;2023-08-30T01:49:56;4.00;;;2.67;;
79640;SDS011;69115;49.904;14.390;2023-08-30T01:52:22;4.18;;;2.35;;
79640;SDS011;69115;49.904;14.390;2023-08-30T01:54:48;3.95;;;2.20;;
79640;SDS011;69115;49.904;14.390;2023-08-30T01:57:16;5.40;;;2.25;;
79640;SDS011;69115;49.904;14.390;2023-08-30T01:59:41;3.47;;;2.35;;
79640;SDS011;69115;49.904;14.390;2023-08-30T02:02:07;3.65;;;2.00;;
79640;SDS011;69115;49.904;14.390;2023-08-30T02:04:32;3.80;;;2.20;;
79640;SDS011;69115;49.904;14.390;2023-08-30T02:07:00;3.53;;;2.15;;
79640;SDS011;69115;49.904;14.390;2023-08-30T02:09:28;3.03;;;2.13;;
79640;SDS011;69115;49.904;14.390;2023-08-30T02:11:57;3.17;;;2.15;;
79640;SDS011;69115;49.904;14.390;2023-08-30T02:14:26;2.90;;;2.20;;
79640;SDS011;69115;49.904;14.390;2023-08-30T02:16:53;6.25;;;2.20;;
79640;SDS011;69115;49.904;14.390;2023-08-30T02:19:20;2.47;;;1.90;;
79640;SDS011;69115;49.904;14.390;2023-08-30T02:21:46;3.15;;;2.00;;
79640;SDS011;69115;49.904;14.390;2023-08-30T02:24:12;3.95;;;1.90;;
79640;SDS011;69115;49.904;14.390;2023-08-30T02:26:38;2.75;;;2.00;;
79640;SDS011;69115;49.904;14.390;2023-08-30T02:29:03;4.35;;;2.20;;
79640;SDS011;69115;49.904;14.390;2023-08-30T02:31:29;2.60;;;1.90;;
79640;SDS011;69115;49.904;14.390;2023-08-30T02:33:54;2.90;;;2.00;;
79640;SDS011;69115;49.904;14.390;2023-08-30T02:36:19;4.03;;;2.00;;
79640;SDS011;69115;49.904;14.390;2023-08-30T02:38:45;5.10;;;1.88;;
79640;SDS011;69115;49.904;14.390;2023-08-30T02:41:10;2.90;;;1.90;;
79640;SDS011;69115;49.904;14.390;2023-08-30T02:43:37;2.75;;;1.92;;
79640;SDS011;69115;49.904;14.390;2023-08-30T02:46:03;3.50;;;1.98;;
79640;SDS011;69115;49.904;14.390;2023-08-30T02:48:29;2.70;;;1.85;;
79640;SDS011;69115;49.904;14.390;2023-08-30T02:50:54;5.28;;;1.98;;
79640;SDS011;69115;49.904;14.390;2023-08-30T02:53:22;3.90;;;1.90;;
79640;SDS011;69115;49.904;14.390;2023-08-30T02:55:47;4.93;;;2.10;;
79640;SDS011;69115;49.904;14.390;2023-08-30T02:58:13;4.38;;;1.95;;
79640;SDS011;69115;49.904;14.390;2023-08-30T03:00:38;2.97;;;2.00;;
79640;SDS011;69115;49.904;14.390;2023-08-30T03:03:04;2.78;;;2.10;;
79640;SDS011;69115;49.904;14.390;2023-08-30T03:05:29;3.05;;;1.80;;
79640;SDS011;69115;49.904;14.390;2023-08-30T03:07:54;3.80;;;2.15;;
79640;SDS011;69115;49.904;14.390;2023-08-30T03:10:20;3.33;;;2.20;;
79640;SDS011;69115;49.904;14.390;2023-08-30T03:12:45;3.45;;;2.00;;
79640;SDS011;69115;49.904;14.390;2023-08-30T03:15:10;3.28;;;2.00;;
79640;SDS011;69115;49.904;14.390;2023-08-30T03:17:36;3.70;;;2.13;;
79640;SDS011;69115;49.904;14.390;2023-08-30T03:20:02;2.70;;;2.20;;
79640;SDS011;69115;49.904;14.390;2023-08-30T03:22:28;2.65;;;2.00;;
79640;SDS011;69115;49.904;14.390;2023-08-30T03:24:54;6.03;;;2.30;;
79640;SDS011;69115;49.904;14.390;2023-08-30T03:27:19;3.40;;;2.13;;
79640;SDS011;69115;49.904;14.390;2023-08-30T03:29:45;2.85;;;2.10;;
79640;SDS011;69115;49.904;14.390;2023-08-30T03:32:13;4.50;;;2.33;;
79640;SDS011;69115;49.904;14.390;2023-08-30T03:34:44;3.15;;;2.20;;
79640;SDS011;69115;49.904;14.390;2023-08-30T03:37:10;3.67;;;2.40;;
79640;SDS011;69115;49.904;14.390;2023-08-30T03:39:35;3.67;;;2.05;;
79640;SDS011;69115;49.904;14.390;2023-08-30T03:42:01;5.05;;;2.65;;
79640;SDS011;69115;49.904;14.390;2023-08-30T03:44:26;3.20;;;2.22;;
79640;SDS011;69115;49.904;14.390;2023-08-30T03:46:51;3.42;;;2.17;;
79640;SDS011;69115;49.904;14.390;2023-08-30T03:49:17;3.97;;;2.47;;
79640;SDS011;69115;49.904;14.390;2023-08-30T03:51:42;3.83;;;2.53;;
79640;SDS011;69115;49.904;14.390;2023-08-30T03:54:08;2.70;;;2.10;;
79640;SDS011;69115;49.904;14.390;2023-08-30T03:59:03;2.97;;;2.10;;
79640;SDS011;69115;49.904;14.390;2023-08-30T04:01:29;3.88;;;2.30;;
79640;SDS011;69115;49.904;14.390;2023-08-30T04:03:54;3.17;;;2.30;;
79640;SDS011;69115;49.904;14.390;2023-08-30T04:06:19;3.20;;;2.13;;
79640;SDS011;69115;49.904;14.390;2023-08-30T04:08:46;3.13;;;2.22;;
79640;SDS011;69115;49.904;14.390;2023-08-30T04:11:12;3.88;;;2.50;;
79640;SDS011;69115;49.904;14.390;2023-08-30T04:13:37;4.03;;;2.40;;
79640;SDS011;69115;49.904;14.390;2023-08-30T04:16:03;5.10;;;2.50;;
79640;SDS011;69115;49.904;14.390;2023-08-30T04:18:29;2.80;;;2.00;;
79640;SDS011;69115;49.904;14.390;2023-08-30T04:20:54;4.40;;;2.30;;
79640;SDS011;69115;49.904;14.390;2023-08-30T04:23:19;3.13;;;2.38;;
79640;SDS011;69115;49.904;14.390;2023-08-30T04:25:45;5.70;;;2.75;;
79640;SDS011;69115;49.904;14.390;2023-08-30T04:28:11;3.55;;;2.03;;
79640;SDS011;69115;49.904;14.390;2023-08-30T04:30:36;3.50;;;2.33;;
79640;SDS011;69115;49.904;14.390;2023-08-30T04:33:03;6.65;;;2.30;;
79640;SDS011;69115;49.904;14.390;2023-08-30T04:35:30;4.93;;;2.40;;
79640;SDS011;69115;49.904;14.390;2023-08-30T04:37:55;3.60;;;2.13;;
79640;SDS011;69115;49.904;14.390;2023-08-30T04:40:20;4.65;;;2.45;;
79640;SDS011;69115;49.904;14.390;2023-08-30T04:42:46;6.63;;;2.50;;
79640;SDS011;69115;49.904;14.390;2023-08-30T04:45:12;4.57;;;2.13;;
79640;SDS011;69115;49.904;14.390;2023-08-30T04:47:37;3.55;;;2.13;;
79640;SDS011;69115;49.904;14.390;2023-08-30T04:50:03;8.35;;;2.70;;
79640;SDS011;69115;49.904;14.390;2023-08-30T04:52:28;4.68;;;2.50;;
79640;SDS011;69115;49.904;14.390;2023-08-30T04:54:54;3.67;;;2.20;;
79640;SDS011;69115;49.904;14.390;2023-08-30T04:57:19;3.20;;;2.20;;
79640;SDS011;69115;49.904;14.390;2023-08-30T04:59:45;3.75;;;2.40;;
79640;SDS011;69115;49.904;14.390;2023-08-30T05:02:11;4.15;;;2.50;;
79640;SDS011;69115;49.904;14.390;2023-08-30T05:04:36;5.65;;;2.60;;
79640;SDS011;69115;49.904;14.390;2023-08-30T05:07:02;4.25;;;2.42;;
79640;SDS011;69115;49.904;14.390;2023-08-30T05:09:28;3.10;;;2.35;;
79640;SDS011;69115;49.904;14.390;2023-08-30T05:11:54;6.53;;;2.30;;
79640;SDS011;69115;49.904;14.390;2023-08-30T05:14:20;5.05;;;2.20;;
79640;SDS011;69115;49.904;14.390;2023-08-30T05:16:45;4.03;;;2.35;;
79640;SDS011;69115;49.904;14.390;2023-08-30T05:19:11;5.10;;;2.33;;
79640;SDS011;69115;49.904;14.390;2023-08-30T05:21:36;5.53;;;2.53;;
79640;SDS011;69115;49.904;14.390;2023-08-30T05:24:02;3.83;;;2.85;;
79640;SDS011;69115;49.904;14.390;2023-08-30T05:26:27;3.85;;;2.60;;
79640;SDS011;69115;49.904;14.390;2023-08-30T05:28:53;6.38;;;2.45;;
79640;SDS011;69115;49.904;14.390;2023-08-30T05:31:18;8.43;;;2.70;;
79640;SDS011;69115;49.904;14.390;2023-08-30T05:33:44;4.57;;;2.55;;
79640;SDS011;69115;49.904;14.390;2023-08-30T05:36:09;6.82;;;2.80;;
79640;SDS011;69115;49.904;14.390;2023-08-30T05:38:35;4.47;;;2.50;;
79640;SDS011;69115;49.904;14.390;2023-08-30T05:41:00;3.53;;;2.60;;
79640;SDS011;69115;49.904;14.390;2023-08-30T05:43:25;6.32;;;3.08;;
79640;SDS011;69115;49.904;14.390;2023-08-30T05:45:51;6.10;;;2.97;;
79640;SDS011;69115;49.904;14.390;2023-08-30T05:48:16;4.93;;;3.20;;
79640;SDS011;69115;49.904;14.390;2023-08-30T05:50:42;6.05;;;3.30;;
79640;SDS011;69115;49.904;14.390;2023-08-30T05:53:07;3.72;;;2.78;;
79640;SDS011;69115;49.904;14.390;2023-08-30T05:55:32;4.30;;;3.10;;
79640;SDS011;69115;49.904;14.390;2023-08-30T05:57:58;4.05;;;2.92;;
79640;SDS011;69115;49.904;14.390;2023-08-30T06:00:23;3.97;;;3.20;;
79640;SDS011;69115;49.904;14.390;2023-08-30T06:02:50;5.97;;;3.25;;
79640;SDS011;69115;49.904;14.390;2023-08-30T06:05:16;4.38;;;3.20;;
79640;SDS011;69115;49.904;14.390;2023-08-30T06:07:41;7.32;;;3.50;;
79640;SDS011;69115;49.904;14.390;2023-08-30T06:10:07;9.30;;;3.53;;
79640;SDS011;69115;49.904;14.390;2023-08-30T06:12:33;9.02;;;3.92;;
79640;SDS011;69115;49.904;14.390;2023-08-30T06:14:58;6.07;;;3.80;;
79640;SDS011;69115;49.904;14.390;2023-08-30T06:17:24;7.95;;;3.78;;
79640;SDS011;69115;49.904;14.390;2023-08-30T06:19:49;5.13;;;3.85;;
79640;SDS011;69115;49.904;14.390;2023-08-30T06:22:15;7.85;;;4.05;;
79640;SDS011;69115;49.904;14.390;2023-08-30T06:24:40;10.05;;;4.40;;
79640;SDS011;69115;49.904;14.390;2023-08-30T06:27:06;11.38;;;6.22;;
79640;SDS011;69115;49.904;14.390;2023-08-30T06:29:31;8.38;;;4.70;;
79640;SDS011;69115;49.904;14.390;2023-08-30T06:31:57;13.48;;;4.65;;
79640;SDS011;69115;49.904;14.390;2023-08-30T06:34:23;5.68;;;3.80;;
79640;SDS011;69115;49.904;14.390;2023-08-30T06:36:48;6.63;;;4.28;;
79640;SDS011;69115;49.904;14.390;2023-08-30T06:39:14;7.65;;;4.22;;
79640;SDS011;69115;49.904;14.390;2023-08-30T06:41:39;5.30;;;3.80;;
79640;SDS011;69115;49.904;14.390;2023-08-30T06:44:05;5.35;;;3.63;;
79640;SDS011;69115;49.904;14.390;2023-08-30T06:46:30;5.03;;;3.40;;
79640;SDS011;69115;49.904;14.390;2023-08-30T06:48:56;7.03;;;3.80;;
79640;SDS011;69115;49.904;14.390;2023-08-30T06:51:21;7.65;;;4.22;;
79640;SDS011;69115;49.904;14.390;2023-08-30T06:53:46;22.25;;;4.93;;
79640;SDS011;69115;49.904;14.390;2023-08-30T06:56:12;5.95;;;3.67;;
79640;SDS011;69115;49.904;14.390;2023-08-30T06:58:37;9.07;;;4.13;;
79640;SDS011;69115;49.904;14.390;2023-08-30T07:01:03;7.90;;;3.75;;
79640;SDS011;69115;49.904;14.390;2023-08-30T07:03:28;6.13;;;3.80;;
79640;SDS011;69115;49.904;14.390;2023-08-30T07:05:54;5.45;;;3.72;;
79640;SDS011;69115;49.904;14.390;2023-08-30T07:08:19;5.43;;;3.53;;
79640;SDS011;69115;49.904;14.390;2023-08-30T07:10:45;6.15;;;3.70;;
79640;SDS011;69115;49.904;14.390;2023-08-30T07:13:10;6.15;;;4.25;;
79640;SDS011;69115;49.904;14.390;2023-08-30T07:15:37;6.15;;;4.07;;
79640;SDS011;69115;49.904;14.390;2023-08-30T07:18:04;9.13;;;4.10;;
79640;SDS011;69115;49.904;14.390;2023-08-30T07:20:30;6.20;;;4.10;;
79640;SDS011;69115;49.904;14.390;2023-08-30T07:22:56;8.05;;;4.15;;
79640;SDS011;69115;49.904;14.390;2023-08-30T07:25:21;8.30;;;4.45;;
79640;SDS011;69115;49.904;14.390;2023-08-30T07:27:47;8.48;;;3.83;;
79640;SDS011;69115;49.904;14.390;2023-08-30T07:30:12;5.28;;;4.03;;
79640;SDS011;69115;49.904;14.390;2023-08-30T07:32:38;5.82;;;4.10;;
79640;SDS011;69115;49.904;14.390;2023-08-30T07:35:04;6.75;;;4.20;;
79640;SDS011;69115;49.904;14.390;2023-08-30T07:37:29;7.03;;;4.30;;
79640;SDS011;69115;49.904;14.390;2023-08-30T07:39:55;5.82;;;4.18;;
79640;SDS011;69115;49.904;14.390;2023-08-30T07:42:20;5.93;;;4.40;;
79640;SDS011;69115;49.904;14.390;2023-08-30T07:44:46;7.55;;;5.03;;
79640;SDS011;69115;49.904;14.390;2023-08-30T07:47:11;5.95;;;3.83;;
79640;SDS011;69115;49.904;14.390;2023-08-30T07:49:37;5.25;;;4.25;;
79640;SDS011;69115;49.904;14.390;2023-08-30T07:52:02;6.00;;;4.47;;
79640;SDS011;69115;49.904;14.390;2023-08-30T07:54:28;7.90;;;5.30;;
79640;SDS011;69115;49.904;14.390;2023-08-30T07:56:53;8.02;;;5.10;;
79640;SDS011;69115;49.904;14.390;2023-08-30T07:59:19;5.97;;;5.00;;
79640;SDS011;69115;49.904;14.390;2023-08-30T08:01:44;6.57;;;5.20;;
79640;SDS011;69115;49.904;14.390;2023-08-30T08:04:10;8.27;;;5.40;;
79640;SDS011;69115;49.904;14.390;2023-08-30T08:06:36;6.70;;;4.78;;
79640;SDS011;69115;49.904;14.390;2023-08-30T08:09:01;9.70;;;4.78;;
79640;SDS011;69115;49.904;14.390;2023-08-30T08:11:27;6.43;;;4.50;;
79640;SDS011;69115;49.904;14.390;2023-08-30T08:13:52;7.80;;;4.90;;
79640;SDS011;69115;49.904;14.390;2023-08-30T08:16:17;7.13;;;4.72;;
79640;SDS011;69115;49.904;14.390;2023-08-30T08:18:43;7.47;;;4.85;;
79640;SDS011;69115;49.904;14.390;2023-08-30T08:21:08;7.32;;;5.20;;
79640;SDS011;69115;49.904;14.390;2023-08-30T08:23:34;7.28;;;4.85;;
79640;SDS011;69115;49.904;14.390;2023-08-30T08:25:59;6.88;;;4.70;;
79640;SDS011;69115;49.904;14.390;2023-08-30T08:28:25;5.25;;;4.18;;
79640;SDS011;69115;49.904;14.390;2023-08-30T08:30:51;7.72;;;4.85;;
79640;SDS011;69115;49.904;14.390;2023-08-30T08:33:17;7.22;;;4.90;;
79640;SDS011;69115;49.904;14.390;2023-08-30T08:35:43;5.35;;;4.30;;
79640;SDS011;69115;49.904;14.390;2023-08-30T08:38:09;6.20;;;4.10;;
79640;SDS011;69115;49.904;14.390;2023-08-30T08:40:38;5.35;;;4.20;;
79640;SDS011;69115;49.904;14.390;2023-08-30T08:43:04;6.95;;;4.70;;
79640;SDS011;69115;49.904;14.390;2023-08-30T08:45:31;7.75;;;4.53;;
79640;SDS011;69115;49.904;14.390;2023-08-30T08:47:59;7.90;;;5.00;;
79640;SDS011;69115;49.904;14.390;2023-08-30T08:50:26;5.85;;;4.50;;
79640;SDS011;69115;49.904;14.390;2023-08-30T08:52:52;5.95;;;4.40;;
79640;SDS011;69115;49.904;14.390;2023-08-30T08:55:18;5.20;;;4.07;;
79640;SDS011;69115;49.904;14.390;2023-08-30T08:57:43;7.47;;;4.53;;
79640;SDS011;69115;49.904;14.390;2023-08-30T09:00:09;6.55;;;4.50;;
79640;SDS011;69115;49.904;14.390;2023-08-30T09:02:35;6.28;;;4.32;;
79640;SDS011;69115;49.904;14.390;2023-08-30T09:05:01;6.40;;;4.75;;
79640;SDS011;69115;49.904;14.390;2023-08-30T09:07:27;7.53;;;4.38;;
79640;SDS011;69115;49.904;14.390;2023-08-30T09:09:53;5.38;;;4.10;;
79640;SDS011;69115;49.904;14.390;2023-08-30T09:12:19;6.13;;;5.43;;
79640;SDS011;69115;49.904;14.390;2023-08-30T09:14:52;6.97;;;4.53;;
79640;SDS011;69115;49.904;14.390;2023-08-30T09:17:19;6.25;;;5.30;;
79640;SDS011;69115;49.904;14.390;2023-08-30T09:19:44;5.95;;;4.90;;
79640;SDS011;69115;49.904;14.390;2023-08-30T09:22:12;9.63;;;4.82;;
79640;SDS011;69115;49.904;14.390;2023-08-30T09:24:38;8.55;;;5.10;;
79640;SDS011;69115;49.904;14.390;2023-08-30T09:27:04;8.30;;;5.28;;
79640;SDS011;69115;49.904;14.390;2023-08-30T09:29:30;5.53;;;4.53;;
79640;SDS011;69115;49.904;14.390;2023-08-30T09:31:56;8.25;;;5.35;;
79640;SDS011;69115;49.904;14.390;2023-08-30T09:34:22;5.47;;;4.63;;
79640;SDS011;69115;49.904;14.390;2023-08-30T09:36:51;6.05;;;4.47;;
79640;SDS011;69115;49.904;14.390;2023-08-30T09:39:16;7.53;;;5.03;;
79640;SDS011;69115;49.904;14.390;2023-08-30T09:44:14;6.22;;;4.80;;
79640;SDS011;69115;49.904;14.390;2023-08-30T09:46:59;7.28;;;4.80;;
79640;SDS011;69115;49.904;14.390;2023-08-30T09:49:25;7.13;;;4.80;;
79640;SDS011;69115;49.904;14.390;2023-08-30T09:51:51;8.32;;;5.45;;
79640;SDS011;69115;49.904;14.390;2023-08-30T09:54:21;9.23;;;5.03;;
79640;SDS011;69115;49.904;14.390;2023-08-30T09:56:50;6.43;;;5.00;;
79640;SDS011;69115;49.904;14.390;2023-08-30T09:59:18;7.45;;;4.97;;
79640;SDS011;69115;49.904;14.390;2023-08-30T10:01:45;6.43;;;4.72;;
79640;SDS011;69115;49.904;14.390;2023-08-30T10:04:12;9.55;;;5.40;;
79640;SDS011;69115;49.904;14.390;2023-08-30T10:06:37;6.72;;;5.00;;
79640;SDS011;69115;49.904;14.390;2023-08-30T10:09:04;7.95;;;6.13;;
79640;SDS011;69115;49.904;14.390;2023-08-30T10:11:32;6.07;;;4.82;;
79640;SDS011;69115;49.904;14.390;2023-08-30T10:13:59;6.47;;;4.90;;
79640;SDS011;69115;49.904;14.390;2023-08-30T10:16:26;6.47;;;5.20;;
79640;SDS011;69115;49.904;14.390;2023-08-30T10:19:00;7.18;;;5.57;;
79640;SDS011;69115;49.904;14.390;2023-08-30T10:21:28;10.63;;;5.63;;
79640;SDS011;69115;49.904;14.390;2023-08-30T10:23:54;6.78;;;6.07;;
79640;SDS011;69115;49.904;14.390;2023-08-30T10:26:22;7.28;;;5.70;;
79640;SDS011;69115;49.904;14.390;2023-08-30T10:28:49;7.75;;;5.20;;
79640;SDS011;69115;49.904;14.390;2023-08-30T10:31:17;8.40;;;5.50;;
79640;SDS011;69115;49.904;14.390;2023-08-30T10:33:49;5.47;;;4.50;;
79640;SDS011;69115;49.904;14.390;2023-08-30T10:36:24;7.10;;;5.05;;
79640;SDS011;69115;49.904;14.390;2023-08-30T10:38:51;6.85;;;4.80;;
79640;SDS011;69115;49.904;14.390;2023-08-30T10:41:26;8.93;;;5.20;;
79640;SDS011;69115;49.904;14.390;2023-08-30T10:43:52;7.55;;;5.65;;
79640;SDS011;69115;49.904;14.390;2023-08-30T10:46:30;6.30;;;5.22;;
79640;SDS011;69115;49.904;14.390;2023-08-30T10:49:13;6.07;;;5.18;;
79640;SDS011;69115;49.904;14.390;2023-08-30T10:51:42;8.00;;;5.43;;
79640;SDS011;69115;49.904;14.390;2023-08-30T10:59:19;6.68;;;4.78;;
79640;SDS011;69115;49.904;14.390;2023-08-30T11:01:48;6.90;;;5.05;;
79640;SDS011;69115;49.904;14.390;2023-08-30T11:04:15;7.05;;;5.25;;
79640;SDS011;69115;49.904;14.390;2023-08-30T11:06:42;6.57;;;4.53;;
79640;SDS011;69115;49.904;14.390;2023-08-30T11:09:09;5.70;;;4.75;;
79640;SDS011;69115;49.904;14.390;2023-08-30T11:11:38;7.35;;;5.70;;
79640;SDS011;69115;49.904;14.390;2023-08-30T11:14:06;6.78;;;5.13;;
79640;SDS011;69115;49.904;14.390;2023-08-30T11:16:31;8.70;;;5.05;;
79640;SDS011;69115;49.904;14.390;2023-08-30T11:18:59;8.05;;;5.60;;
79640;SDS011;69115;49.904;14.390;2023-08-30T11:21:26;7.38;;;5.00;;
79640;SDS011;69115;49.904;14.390;2023-08-30T11:23:52;6.40;;;4.65;;
79640;SDS011;69115;49.904;14.390;2023-08-30T11:26:17;7.75;;;4.88;;
79640;SDS011;69115;49.904;14.390;2023-08-30T11:28:43;5.30;;;4.47;;
79640;SDS011;69115;49.904;14.390;2023-08-30T11:31:32;5.22;;;3.92;;
79640;SDS011;69115;49.904;14.390;2023-08-30T11:33:58;5.25;;;4.30;;
79640;SDS011;69115;49.904;14.390;2023-08-30T11:36:28;4.80;;;3.85;;
79640;SDS011;69115;49.904;14.390;2023-08-30T11:38:57;5.95;;;4.43;;
79640;SDS011;69115;49.904;14.390;2023-08-30T11:41:23;5.95;;;4.20;;
79640;SDS011;69115;49.904;14.390;2023-08-30T11:43:50;5.35;;;4.45;;
79640;SDS011;69115;49.904;14.390;2023-08-30T11:46:16;6.50;;;4.80;;
79640;SDS011;69115;49.904;14.390;2023-08-30T11:48:42;5.35;;;4.32;;
79640;SDS011;69115;49.904;14.390;2023-08-30T11:51:09;5.35;;;4.03;;
79640;SDS011;69115;49.904;14.390;2023-08-30T11:53:34;8.30;;;4.28;;
79640;SDS011;69115;49.904;14.390;2023-08-30T11:56:00;6.03;;;4.47;;
79640;SDS011;69115;49.904;14.390;2023-08-30T11:58:26;5.82;;;4.43;;
79640;SDS011;69115;49.904;14.390;2023-08-30T12:00:52;5.53;;;4.50;;
79640;SDS011;69115;49.904;14.390;2023-08-30T12:03:19;5.38;;;4.32;;
79640;SDS011;69115;49.904;14.390;2023-08-30T12:05:48;7.50;;;4.60;;
79640;SDS011;69115;49.904;14.390;2023-08-30T12:08:18;5.35;;;4.25;;
79640;SDS011;69115;49.904;14.390;2023-08-30T12:10:48;8.52;;;4.30;;
79640;SDS011;69115;49.904;14.390;2023-08-30T12:13:21;6.53;;;4.35;;
79640;SDS011;69115;49.904;14.390;2023-08-30T12:15:47;6.43;;;4.13;;
79640;SDS011;69115;49.904;14.390;2023-08-30T12:18:12;6.93;;;4.82;;
79640;SDS011;69115;49.904;14.390;2023-08-30T12:20:37;6.70;;;4.85;;
79640;SDS011;69115;49.904;14.390;2023-08-30T12:23:03;6.00;;;4.57;;
79640;SDS011;69115;49.904;14.390;2023-08-30T12:25:28;6.63;;;4.65;;
79640;SDS011;69115;49.904;14.390;2023-08-30T12:27:55;6.15;;;5.20;;
79640;SDS011;69115;49.904;14.390;2023-08-30T12:30:21;6.97;;;4.93;;
79640;SDS011;69115;49.904;14.390;2023-08-30T12:32:47;6.28;;;4.72;;
79640;SDS011;69115;49.904;14.390;2023-08-30T12:35:13;6.60;;;4.63;;
79640;SDS011;69115;49.904;14.390;2023-08-30T12:37:38;6.80;;;4.60;;
79640;SDS011;69115;49.904;14.390;2023-08-30T12:40:04;5.50;;;4.43;;
79640;SDS011;69115;49.904;14.390;2023-08-30T12:42:31;5.60;;;4.82;;
79640;SDS011;69115;49.904;14.390;2023-08-30T12:44:56;6.95;;;4.93;;
79640;SDS011;69115;49.904;14.390;2023-08-30T12:47:23;9.00;;;4.75;;
79640;SDS011;69115;49.904;14.390;2023-08-30T12:49:48;6.28;;;5.03;;
79640;SDS011;69115;49.904;14.390;2023-08-30T12:52:14;5.65;;;4.70;;
79640;SDS011;69115;49.904;14.390;2023-08-30T12:54:41;5.80;;;4.50;;
79640;SDS011;69115;49.904;14.390;2023-08-30T12:57:06;6.88;;;4.82;;
79640;SDS011;69115;49.904;14.390;2023-08-30T12:59:32;5.50;;;4.57;;
79640;SDS011;69115;49.904;14.390;2023-08-30T13:01:57;7.50;;;5.32;;
79640;SDS011;69115;49.904;14.390;2023-08-30T13:04:23;5.97;;;5.03;;
79640;SDS011;69115;49.904;14.390;2023-08-30T13:06:48;6.07;;;4.75;;
79640;SDS011;69115;49.904;14.390;2023-08-30T13:09:16;7.03;;;5.40;;
79640;SDS011;69115;49.904;14.390;2023-08-30T13:11:41;7.63;;;5.03;;
79640;SDS011;69115;49.904;14.390;2023-08-30T13:14:07;5.38;;;4.53;;
79640;SDS011;69115;49.904;14.390;2023-08-30T13:16:32;8.95;;;4.68;;
79640;SDS011;69115;49.904;14.390;2023-08-30T13:18:58;5.85;;;4.35;;
79640;SDS011;69115;49.904;14.390;2023-08-30T13:21:23;7.18;;;4.80;;
79640;SDS011;69115;49.904;14.390;2023-08-30T13:23:48;6.90;;;5.15;;
79640;SDS011;69115;49.904;14.390;2023-08-30T13:26:14;8.18;;;5.72;;
79640;SDS011;69115;49.904;14.390;2023-08-30T13:28:39;6.20;;;5.00;;
79640;SDS011;69115;49.904;14.390;2023-08-30T13:31:07;6.03;;;5.03;;
79640;SDS011;69115;49.904;14.390;2023-08-30T13:33:33;6.75;;;5.28;;
79640;SDS011;69115;49.904;14.390;2023-08-30T13:35:58;5.57;;;4.85;;
79640;SDS011;69115;49.904;14.390;2023-08-30T13:38:24;5.70;;;5.10;;
79640;SDS011;69115;49.904;14.390;2023-08-30T13:40:50;5.45;;;4.75;;
79640;SDS011;69115;49.904;14.390;2023-08-30T13:43:15;5.78;;;5.03;;
79640;SDS011;69115;49.904;14.390;2023-08-30T13:45:41;6.07;;;5.47;;
79640;SDS011;69115;49.904;14.390;2023-08-30T13:48:06;7.90;;;5.25;;
79640;SDS011;69115;49.904;14.390;2023-08-30T13:50:32;7.10;;;5.05;;
79640;SDS011;69115;49.904;14.390;2023-08-30T13:52:57;5.65;;;4.40;;
79640;SDS011;69115;49.904;14.390;2023-08-30T13:55:23;6.78;;;5.00;;
79640;SDS011;69115;49.904;14.390;2023-08-30T13:57:48;6.35;;;5.22;;
79640;SDS011;69115;49.904;14.390;2023-08-30T14:00:14;6.72;;;4.50;;
79640;SDS011;69115;49.904;14.390;2023-08-30T14:02:40;6.38;;;4.20;;
79640;SDS011;69115;49.904;14.390;2023-08-30T14:05:06;4.95;;;4.32;;
79640;SDS011;69115;49.904;14.390;2023-08-30T14:07:32;6.35;;;4.75;;
79640;SDS011;69115;49.904;14.390;2023-08-30T14:09:57;5.47;;;4.53;;
79640;SDS011;69115;49.904;14.390;2023-08-30T14:12:23;5.40;;;4.28;;
79640;SDS011;69115;49.904;14.390;2023-08-30T14:14:48;6.70;;;5.03;;
79640;SDS011;69115;49.904;14.390;2023-08-30T14:17:14;5.63;;;4.95;;
79640;SDS011;69115;49.904;14.390;2023-08-30T14:19:39;5.40;;;4.60;;
79640;SDS011;69115;49.904;14.390;2023-08-30T14:22:04;7.03;;;5.43;;
79640;SDS011;69115;49.904;14.390;2023-08-30T14:24:31;8.02;;;5.60;;
79640;SDS011;69115;49.904;14.390;2023-08-30T14:26:57;7.55;;;5.40;;
79640;SDS011;69115;49.904;14.390;2023-08-30T14:29:23;6.28;;;5.68;;
79640;SDS011;69115;49.904;14.390;2023-08-30T14:31:48;7.90;;;6.43;;
79640;SDS011;69115;49.904;14.390;2023-08-30T14:34:14;11.05;;;6.28;;
79640;SDS011;69115;49.904;14.390;2023-08-30T14:36:39;9.93;;;6.72;;
79640;SDS011;69115;49.904;14.390;2023-08-30T14:39:07;7.30;;;6.40;;
79640;SDS011;69115;49.904;14.390;2023-08-30T14:41:33;9.25;;;6.85;;